createdAt,value
2022-08-22T00:01:27.231Z,13.50
2022-08-22T00:02:44.477Z,14.10
2022-08-22T00:02:58.750Z,13.80
2022-08-22T00:03:01.581Z,15.10
2022-08-22T00:03:10.286Z,14.90
2022-08-22T00:03:12.644Z,13.80
2022-08-22T00:04:21.776Z,13.50
2022-08-22T00:07:11.113Z,13.40
2022-08-22T00:09:52.737Z,13.50
2022-08-22T00:12:49.440Z,13.50
2022-08-22T00:15:42.956Z,13.60
2022-08-22T00:18:22.449Z,13.70
2022-08-22T00:20:56.700Z,13.70
2022-08-22T00:23:47.972Z,13.70
2022-08-22T00:26:45.055Z,13.50
2022-08-22T00:29:38.945Z,13.40
2022-08-22T00:32:15.803Z,13.30
2022-08-22T00:35:15.557Z,13.40
2022-08-22T00:38:02.881Z,13.20
2022-08-22T00:41:13.199Z,13.20
2022-08-22T00:43:54.756Z,13.10
2022-08-22T00:46:28.264Z,13.10
2022-08-22T00:49:08.197Z,13.10
2022-08-22T00:51:45.190Z,13.10
2022-08-22T00:54:35.226Z,13.20
2022-08-22T00:57:20.321Z,13.30
2022-08-22T00:59:50.712Z,13.30
2022-08-22T01:02:26.314Z,13.30
2022-08-22T01:05:06.287Z,13.30
2022-08-22T01:07:41.117Z,13.20
2022-08-22T01:10:26.001Z,13.20
2022-08-22T01:13:33.048Z,13.20
2022-08-22T01:16:50.485Z,13.20
2022-08-22T01:19:42.271Z,13.30
2022-08-22T01:22:37.684Z,13.10
2022-08-22T01:25:26.092Z,13.10
2022-08-22T01:28:16.482Z,13.10
2022-08-22T01:30:48.807Z,13.10
2022-08-22T01:33:53.860Z,13.00
2022-08-22T01:36:46.362Z,13.10
2022-08-22T01:39:35.253Z,13.10
2022-08-22T01:42:40.544Z,13.10
2022-08-22T01:45:38.244Z,13.10
2022-08-22T01:48:25.301Z,13.10
2022-08-22T01:50:58.123Z,13.10
2022-08-22T01:53:41.012Z,13.10
2022-08-22T01:56:23.475Z,13.10
2022-08-22T01:59:00.057Z,13.10
2022-08-22T02:01:52.734Z,13.30
2022-08-22T02:04:55.724Z,13.50
2022-08-22T02:07:46.495Z,13.80
2022-08-22T02:10:42.120Z,13.90
2022-08-22T02:13:13.042Z,13.90
2022-08-22T02:15:50.313Z,13.90
2022-08-22T02:18:28.432Z,13.90
2022-08-22T02:21:27.534Z,13.90
2022-08-22T02:24:22.174Z,14.00
2022-08-22T02:27:27.115Z,14.00
2022-08-22T02:30:25.569Z,14.00
2022-08-22T02:33:07.532Z,14.00
2022-08-22T02:36:04.800Z,14.00
2022-08-22T02:39:13.703Z,14.00
2022-08-22T02:42:16.370Z,13.90
2022-08-22T02:45:21.225Z,13.80
2022-08-22T02:47:48.934Z,13.70
2022-08-22T02:50:23.602Z,13.60
2022-08-22T02:53:13.840Z,13.60
2022-08-22T02:55:59.119Z,13.70
2022-08-22T02:58:31.447Z,13.70
2022-08-22T03:00:59.164Z,13.60
2022-08-22T03:03:31.791Z,13.70
2022-08-22T03:06:05.539Z,13.70
2022-08-22T03:09:00.849Z,13.80
2022-08-22T03:11:32.641Z,13.90
2022-08-22T03:14:09.387Z,13.90
2022-08-22T03:17:00.950Z,13.80
2022-08-22T03:19:46.889Z,13.70
2022-08-22T03:22:36.637Z,13.60
2022-08-22T03:25:39.566Z,13.60
2022-08-22T03:28:10.934Z,13.60
2022-08-22T03:30:50.905Z,13.70
2022-08-22T03:33:27.606Z,13.70
2022-08-22T03:36:04.264Z,13.70
2022-08-22T03:38:34.883Z,13.60
2022-08-22T03:41:21.252Z,13.60
2022-08-22T03:44:19.357Z,13.70
2022-08-22T03:47:07.113Z,13.70
2022-08-22T03:49:57.653Z,13.70
2022-08-22T03:53:04.794Z,13.70
2022-08-22T03:55:35.950Z,13.70
2022-08-22T03:58:27.315Z,13.70
2022-08-22T04:01:29.627Z,13.60
2022-08-22T04:04:23.220Z,13.60
2022-08-22T04:07:17.766Z,13.50
2022-08-22T04:10:34.014Z,13.50
2022-08-22T04:13:26.425Z,13.40
2022-08-22T04:16:07.014Z,13.40
2022-08-22T04:18:50.014Z,13.50
2022-08-22T04:21:44.246Z,13.50
2022-08-22T04:24:45.328Z,13.40
2022-08-22T04:27:42.460Z,13.50
2022-08-22T04:30:34.920Z,13.50
2022-08-22T04:33:14.440Z,13.40
2022-08-22T04:35:52.281Z,13.40
2022-08-22T04:38:40.218Z,13.20
2022-08-22T04:41:18.301Z,13.10
2022-08-22T04:43:53.173Z,13.20
2022-08-22T04:46:39.441Z,13.20
2022-08-22T04:49:34.474Z,13.20
2022-08-22T04:52:38.579Z,13.20
2022-08-22T04:55:24.837Z,13.20
2022-08-22T04:58:12.158Z,13.20
2022-08-22T05:00:49.023Z,13.20
2022-08-22T05:03:18.668Z,13.20
2022-08-22T05:05:49.516Z,13.20
2022-08-22T05:08:23.479Z,13.20
2022-08-22T05:10:53.059Z,13.20
2022-08-22T05:13:33.814Z,13.20
2022-08-22T05:16:09.648Z,13.20
2022-08-22T05:18:46.488Z,13.40
2022-08-22T05:21:16.904Z,13.40
2022-08-22T05:23:54.922Z,13.40
2022-08-22T05:26:23.176Z,13.50
2022-08-22T05:28:56.782Z,13.50
2022-08-22T05:31:32.377Z,13.60
2022-08-22T05:34:11.825Z,13.70
2022-08-22T05:36:43.672Z,13.70
2022-08-22T05:39:21.378Z,13.80
2022-08-22T05:41:56.936Z,13.90
2022-08-22T05:44:28.030Z,14.10
2022-08-22T05:47:23.349Z,14.20
2022-08-22T05:50:02.658Z,14.30
2022-08-22T05:52:59.370Z,14.30
2022-08-22T05:55:51.496Z,14.50
2022-08-22T05:58:50.891Z,14.60
2022-08-22T06:01:25.858Z,14.80
2022-08-22T06:03:57.063Z,14.90
2022-08-22T06:06:30.731Z,14.90
2022-08-22T06:09:08.366Z,15.00
2022-08-22T06:11:54.807Z,15.00
2022-08-22T06:14:49.643Z,15.10
2022-08-22T06:17:24.376Z,15.30
2022-08-22T06:19:54.105Z,15.40
2022-08-22T06:22:28.589Z,15.60
2022-08-22T06:25:01.997Z,15.90
2022-08-22T06:27:32.793Z,16.10
2022-08-22T06:30:06.304Z,16.30
2022-08-22T06:32:58.240Z,16.50
2022-08-22T06:36:04.524Z,16.60
2022-08-22T06:38:40.110Z,17.00
2022-08-22T06:41:08.932Z,17.10
2022-08-22T06:43:43.561Z,17.30
2022-08-22T06:46:16.291Z,17.50
2022-08-22T06:48:44.996Z,17.60
2022-08-22T06:51:15.179Z,17.80
2022-08-22T06:53:50.464Z,17.90
2022-08-22T06:56:24.515Z,18.00
2022-08-22T06:58:59.195Z,18.10
2022-08-22T07:01:54.664Z,18.20
2022-08-22T07:04:26.731Z,18.40
2022-08-22T07:06:56.742Z,18.30
2022-08-22T07:09:32.025Z,18.10
2022-08-22T07:12:02.914Z,18.00
2022-08-22T07:14:49.710Z,18.30
2022-08-22T07:17:58.068Z,18.40
2022-08-22T07:20:31.498Z,18.40
2022-08-22T07:23:10.726Z,18.20
2022-08-22T07:26:04.290Z,18.20
2022-08-22T07:28:51.259Z,18.20
2022-08-22T07:31:31.801Z,17.90
2022-08-22T07:34:14.383Z,17.90
2022-08-22T07:37:00.128Z,18.00
2022-08-22T07:39:46.593Z,18.20
2022-08-22T07:42:28.585Z,18.20
2022-08-22T07:50:30.932Z,18.70
2022-08-22T07:53:13.481Z,19.10
2022-08-22T07:55:49.763Z,19.20
2022-08-22T07:58:19.347Z,19.30
2022-08-22T08:00:50.402Z,19.30
2022-08-22T08:03:23.525Z,19.30
2022-08-22T08:05:51.771Z,19.40
2022-08-22T08:08:41.932Z,19.50
2022-08-22T08:11:13.508Z,19.50
2022-08-22T08:13:45.841Z,19.50
2022-08-22T08:16:19.754Z,19.50
2022-08-22T08:18:50.350Z,19.60
2022-08-22T08:22:07.824Z,19.70
2022-08-22T08:24:43.070Z,20.10
2022-08-22T08:27:39.236Z,20.00
2022-08-22T08:30:17.309Z,19.90
2022-08-22T08:33:24.388Z,19.80
2022-08-22T08:36:36.794Z,19.80
2022-08-22T08:39:14.128Z,19.70
2022-08-22T08:41:57.211Z,19.60
2022-08-22T08:44:40.893Z,19.80
2022-08-22T08:47:39.886Z,19.90
2022-08-22T08:50:45.168Z,20.10
2022-08-22T08:53:43.275Z,20.20
2022-08-22T08:56:29.625Z,20.40
2022-08-22T08:59:28.833Z,20.40
2022-08-22T09:02:23.652Z,20.20
2022-08-22T09:05:28.669Z,20.20
2022-08-22T09:08:22.849Z,20.40
2022-08-22T09:11:14.401Z,20.40
2022-08-22T09:14:15.013Z,20.40
2022-08-22T09:16:45.571Z,20.50
2022-08-22T09:19:34.280Z,20.60
2022-08-22T09:22:18.043Z,20.50
2022-08-22T09:24:49.141Z,20.20
2022-08-22T09:27:25.202Z,20.00
2022-08-22T09:30:19.554Z,19.90
2022-08-22T09:32:59.076Z,20.00
2022-08-22T09:35:32.698Z,20.00
2022-08-22T09:38:37.103Z,20.00
2022-08-22T09:41:30.533Z,20.00
2022-08-22T09:44:15.537Z,20.10
2022-08-22T09:47:11.022Z,20.10
2022-08-22T09:50:31.407Z,20.10
2022-08-22T09:53:12.137Z,20.10
2022-08-22T09:55:55.004Z,20.00
2022-08-22T09:58:45.439Z,19.90
2022-08-22T10:01:33.319Z,19.80
2022-08-22T10:04:42.192Z,19.70
2022-08-22T10:07:31.650Z,19.70
2022-08-22T10:10:07.105Z,19.70
2022-08-22T10:13:16.332Z,19.90
2022-08-22T10:16:22.748Z,20.10
2022-08-22T10:19:14.136Z,20.20
2022-08-22T10:22:03.043Z,20.30
2022-08-22T10:25:04.812Z,20.40
2022-08-22T10:27:57.100Z,20.50
2022-08-22T10:30:31.116Z,20.50
2022-08-22T10:33:20.038Z,20.60
2022-08-22T10:35:50.524Z,20.70
2022-08-22T10:38:32.508Z,20.80
2022-08-22T10:41:22.652Z,20.80
2022-08-22T10:44:04.525Z,20.70
2022-08-22T10:46:33.276Z,20.80
2022-08-22T10:49:08.102Z,20.90
2022-08-22T10:52:17.331Z,21.00
2022-08-22T10:58:21.781Z,21.00
2022-08-22T11:01:38.634Z,21.00
2022-08-22T11:04:37.952Z,21.00
2022-08-22T11:08:04.355Z,21.00
2022-08-22T11:10:53.606Z,21.10
2022-08-22T11:13:38.967Z,21.10
2022-08-22T11:16:21.957Z,21.00
2022-08-22T11:19:02.810Z,21.00
2022-08-22T11:21:54.439Z,21.00
2022-08-22T11:24:35.719Z,21.10
2022-08-22T11:27:17.713Z,21.20
2022-08-22T11:30:03.755Z,21.10
2022-08-22T11:32:59.577Z,21.10
2022-08-22T11:35:53.055Z,21.10
2022-08-22T11:38:54.900Z,21.10
2022-08-22T11:41:42.641Z,21.10
2022-08-22T12:04:34.661Z,20.80
2022-08-22T12:07:31.419Z,20.90
2022-08-22T12:10:30.333Z,21.00
2022-08-22T12:13:18.284Z,21.10
2022-08-22T12:16:42.620Z,21.20
2022-08-22T12:19:32.926Z,21.40
2022-08-22T12:22:53.539Z,21.30
2022-08-22T12:25:39.386Z,21.40
2022-08-22T12:29:34.100Z,21.40
2022-08-22T12:34:06.543Z,21.30
2022-08-22T12:36:57.129Z,21.40
2022-08-22T12:40:00.897Z,21.50
2022-08-22T12:43:10.369Z,21.60
2022-08-22T12:46:07.869Z,21.60
2022-08-22T12:57:42.755Z,21.80
2022-08-22T13:02:00.742Z,21.70
2022-08-22T13:04:34.512Z,21.70
2022-08-22T13:12:55.594Z,21.80
2022-08-22T13:15:55.756Z,21.90
2022-08-22T13:18:31.331Z,21.80
2022-08-22T13:21:04.359Z,21.80
2022-08-22T13:23:39.627Z,21.80
2022-08-22T13:26:34.577Z,22.00
2022-08-22T13:29:26.977Z,22.00
2022-08-22T13:32:01.861Z,22.00
2022-08-22T13:34:39.794Z,22.10
2022-08-22T13:37:14.946Z,22.20
2022-08-22T13:39:53.145Z,22.20
2022-08-22T13:42:30.087Z,22.20
2022-08-22T13:45:19.987Z,22.20
2022-08-22T13:48:02.575Z,22.10
2022-08-22T13:50:37.511Z,22.10
2022-08-22T13:53:49.876Z,22.20
2022-08-22T13:56:50.585Z,22.10
2022-08-22T13:59:51.814Z,22.10
2022-08-22T14:02:23.350Z,22.10
2022-08-22T14:05:06.293Z,22.00
2022-08-22T14:07:50.217Z,21.90
2022-08-22T14:10:31.951Z,21.60
2022-08-22T14:13:14.217Z,21.70
2022-08-22T14:15:45.897Z,21.90
2022-08-22T14:18:30.555Z,22.00
2022-08-22T14:21:40.827Z,22.10
2022-08-22T14:25:26.560Z,22.10
2022-08-22T14:28:01.190Z,22.20
2022-08-22T14:31:04.192Z,22.30
2022-08-22T14:33:39.869Z,22.20
2022-08-22T14:36:17.268Z,22.10
2022-08-22T14:38:53.374Z,21.90
2022-08-22T14:41:25.369Z,21.80
2022-08-22T14:44:09.576Z,22.00
2022-08-22T14:46:51.126Z,22.00
2022-08-22T14:49:18.822Z,22.10
2022-08-22T14:51:54.860Z,22.20
2022-08-22T14:54:29.070Z,22.50
2022-08-22T14:56:59.439Z,22.60
2022-08-22T14:59:53.895Z,22.50
2022-08-22T15:02:34.525Z,22.60
2022-08-22T15:05:16.848Z,22.60
2022-08-22T15:07:55.093Z,22.60
2022-08-22T15:10:31.810Z,22.50
2022-08-22T15:13:07.848Z,22.40
2022-08-22T15:15:53.604Z,22.40
2022-08-22T15:18:28.465Z,22.40
2022-08-22T15:21:08.529Z,22.40
2022-08-22T15:23:45.062Z,22.30
2022-08-22T15:26:30.645Z,22.40
2022-08-22T15:29:07.370Z,22.20
2022-08-22T15:31:36.584Z,21.80
2022-08-22T15:34:25.672Z,21.90
2022-08-22T15:37:26.140Z,21.90
2022-08-22T15:40:11.820Z,22.00
2022-08-22T15:42:51.320Z,22.10
2022-08-22T15:45:33.682Z,22.20
2022-08-22T15:48:05.198Z,22.20
2022-08-22T15:50:36.736Z,22.00
2022-08-22T15:53:30.857Z,21.80
2022-08-22T15:56:19.859Z,21.80
2022-08-22T15:59:16.476Z,21.90
2022-08-22T16:01:53.193Z,21.90
2022-08-22T16:04:48.397Z,21.70
2022-08-22T16:07:40.958Z,21.60
2022-08-22T16:10:13.971Z,21.60
2022-08-22T16:12:44.292Z,21.60
2022-08-22T16:15:46.995Z,21.60
2022-08-22T16:18:33.874Z,21.60
2022-08-22T16:21:29.695Z,21.60
2022-08-22T16:23:57.264Z,21.60
2022-08-22T16:26:31.081Z,21.60
2022-08-22T16:29:13.673Z,21.70
2022-08-22T16:31:49.417Z,21.60
2022-08-22T16:34:20.762Z,21.60
2022-08-22T16:37:04.286Z,21.60
2022-08-22T16:40:01.934Z,21.60
2022-08-22T16:42:38.762Z,21.60
2022-08-22T16:45:54.447Z,21.60
2022-08-22T16:48:43.530Z,21.50
2022-08-22T16:51:16.517Z,21.50
2022-08-22T16:54:12.385Z,21.50
2022-08-22T16:57:02.707Z,21.50
2022-08-22T17:00:00.438Z,21.50
2022-08-22T17:02:47.584Z,21.40
2022-08-22T17:05:30.296Z,21.40
2022-08-22T17:08:20.130Z,21.30
2022-08-22T17:11:07.168Z,21.40
2022-08-22T17:14:11.264Z,21.50
2022-08-22T17:16:56.071Z,21.70
2022-08-22T17:19:34.301Z,22.30
2022-08-22T17:22:16.445Z,23.50
2022-08-22T17:25:04.279Z,23.30
2022-08-22T17:27:40.187Z,22.60
2022-08-22T17:30:29.655Z,22.00
2022-08-22T17:33:35.313Z,21.70
2022-08-22T17:36:27.105Z,21.60
2022-08-22T17:39:18.979Z,21.50
2022-08-22T17:42:35.538Z,21.20
2022-08-22T17:45:37.540Z,21.10
2022-08-22T17:48:21.599Z,21.00
2022-08-22T17:51:29.587Z,20.80
2022-08-22T17:54:42.715Z,20.50
2022-08-22T17:57:22.593Z,20.30
2022-08-22T17:59:57.779Z,20.20
2022-08-22T18:02:39.477Z,20.20
2022-08-22T18:05:33.957Z,19.70
2022-08-22T18:11:25.450Z,19.00
2022-08-22T18:14:13.268Z,18.80
2022-08-22T18:16:53.945Z,18.50
2022-08-22T18:19:38.589Z,18.40
2022-08-22T18:22:32.417Z,18.20
2022-08-22T18:25:08.761Z,18.00
2022-08-22T18:27:56.614Z,17.40
2022-08-22T18:30:33.215Z,17.00
2022-08-22T18:33:11.584Z,16.70
2022-08-22T18:36:11.613Z,16.60
2022-08-22T18:38:49.960Z,16.60
2022-08-22T18:41:26.700Z,16.40
2022-08-22T18:43:59.192Z,16.40
2022-08-22T18:46:30.196Z,16.30
2022-08-22T18:49:15.238Z,16.20
2022-08-22T18:51:43.555Z,16.20
2022-08-22T18:54:11.521Z,16.00
2022-08-22T18:56:58.407Z,15.90
2022-08-22T18:59:31.863Z,15.80
2022-08-22T19:02:30.413Z,15.60
2022-08-22T19:05:22.543Z,15.60
2022-08-22T19:08:16.291Z,15.60
2022-08-22T19:11:36.424Z,15.50
2022-08-22T19:14:34.412Z,15.40
2022-08-22T19:17:40.637Z,15.30
2022-08-22T19:20:46.348Z,15.20
2022-08-22T19:23:32.190Z,15.00
2022-08-22T19:26:28.868Z,15.00
2022-08-22T19:29:17.480Z,14.90
2022-08-22T19:31:48.460Z,14.80
2022-08-22T19:34:30.023Z,14.70
2022-08-22T19:37:31.901Z,14.60
2022-08-22T19:40:11.632Z,14.50
2022-08-22T19:42:42.978Z,14.40
2022-08-22T19:45:26.663Z,14.40
2022-08-22T19:48:08.511Z,14.30
2022-08-22T19:50:39.273Z,14.20
2022-08-22T19:53:32.680Z,14.20
2022-08-22T19:56:31.573Z,14.20
2022-08-22T19:59:15.493Z,14.30
2022-08-22T20:01:56.550Z,14.10
2022-08-22T20:04:37.059Z,13.90
2022-08-22T20:07:25.245Z,13.80
2022-08-22T20:10:11.662Z,13.80
2022-08-22T20:13:09.034Z,13.80
2022-08-22T20:16:25.582Z,13.80
2022-08-22T20:23:01.662Z,13.80
2022-08-22T20:25:42.957Z,14.00
2022-08-22T20:28:44.414Z,14.00
2022-08-22T20:31:21.098Z,13.70
2022-08-22T20:33:53.818Z,13.60
2022-08-22T20:36:28.610Z,13.50
2022-08-22T20:39:10.894Z,13.50
2022-08-22T20:41:53.450Z,13.60
2022-08-22T20:44:47.089Z,13.70
2022-08-22T20:47:24.907Z,13.80
2022-08-22T20:49:57.635Z,14.00
2022-08-22T20:52:31.242Z,14.10
2022-08-22T20:55:13.133Z,14.20
2022-08-22T20:57:50.961Z,14.20
2022-08-22T21:00:22.776Z,14.30
2022-08-22T21:02:53.753Z,14.50
2022-08-22T21:05:25.151Z,14.60
2022-08-22T21:08:08.849Z,14.80
2022-08-22T21:10:57.197Z,14.80
2022-08-22T21:13:33.931Z,14.90
2022-08-22T21:16:17.143Z,14.80
2022-08-22T21:18:47.829Z,14.80
2022-08-22T21:21:27.832Z,14.80
2022-08-22T21:24:06.987Z,14.80
2022-08-22T21:26:36.793Z,14.70
2022-08-22T21:29:32.784Z,14.60
2022-08-22T21:32:14.788Z,14.70
2022-08-22T21:34:45.362Z,14.70
2022-08-22T21:37:16.854Z,14.70
2022-08-22T21:39:58.707Z,14.70
2022-08-22T21:47:49.387Z,14.60
2022-08-22T22:14:00.002Z,14.80
2022-08-22T22:16:29.681Z,14.70
2022-08-22T22:18:57.513Z,14.60
2022-08-22T22:21:25.407Z,14.60
2022-08-22T22:23:53.966Z,14.60
2022-08-22T22:26:26.746Z,14.60
2022-08-22T22:28:54.528Z,14.60
2022-08-22T22:31:22.179Z,14.60
2022-08-22T22:33:49.818Z,14.50
2022-08-22T22:36:24.860Z,14.50
2022-08-22T22:38:53.867Z,14.40
2022-08-22T22:41:25.899Z,14.30
2022-08-22T22:43:54.893Z,14.20
2022-08-22T22:46:23.248Z,14.10
2022-08-22T22:48:50.910Z,14.00
2022-08-22T22:51:18.979Z,14.10
2022-08-22T22:53:47.223Z,14.10
2022-08-22T22:56:22.518Z,14.10
2022-08-22T22:58:59.216Z,14.10
2022-08-22T23:01:31.317Z,14.00
2022-08-22T23:04:05.484Z,14.00
2022-08-22T23:06:34.560Z,14.10
2022-08-22T23:09:02.221Z,14.10
2022-08-22T23:11:32.286Z,14.00
2022-08-22T23:14:01.822Z,14.00
2022-08-22T23:16:33.973Z,13.90
2022-08-22T23:19:09.387Z,13.90
2022-08-22T23:21:39.770Z,13.90
2022-08-22T23:24:09.765Z,13.80
2022-08-22T23:26:38.572Z,13.80
2022-08-22T23:29:07.093Z,13.80
2022-08-22T23:31:39.291Z,13.90
2022-08-22T23:34:17.056Z,13.90
2022-08-22T23:36:46.821Z,13.90
2022-08-22T23:39:15.647Z,13.90
2022-08-22T23:41:44.502Z,13.90
2022-08-22T23:44:16.518Z,13.80
2022-08-22T23:46:44.641Z,13.80
2022-08-22T23:49:13.477Z,13.70
2022-08-22T23:51:42.406Z,13.70
2022-08-22T23:54:10.283Z,13.70
2022-08-22T23:56:43.484Z,13.70
2022-08-22T23:59:14.965Z,13.70
